Time;durP1;ratioP1;P1;durP2;ratioP2;P2;SDS_P1;SDS_P2;PMS_P1;PMS_P2;Temp;Humidity;BMP_temperature;BMP_pressure;BME280_temperature;BME280_humidity;BME280_pressure;Samples;Min_cycle;Max_cycle;Signal;HPM_P1;HPM_P2
2022/08/05 00:00:56;;;;;;;5.35;1.83;;;22.20;56.90;;;;;;5034573;28;20135;-69
2022/08/05 00:03:22;;;;;;;4.30;1.63;;;22.10;56.80;;;;;;5034497;28;20042;-69
2022/08/05 00:05:48;;;;;;;3.85;1.52;;;22.10;56.80;;;;;;5034567;28;20049;-69
2022/08/05 00:08:13;;;;;;;6.25;1.35;;;22.10;56.80;;;;;;5017951;28;20056;-69
2022/08/05 00:10:39;;;;;;;3.08;1.58;;;22.10;56.70;;;;;;5034472;28;20041;-69
2022/08/05 00:13:05;;;;;;;3.33;1.67;;;22.10;56.90;;;;;;5034373;28;20037;-68
2022/08/05 00:15:30;;;;;;;5.50;1.75;;;22.10;56.80;;;;;;5034341;28;20045;-69
2022/08/05 00:17:56;;;;;;;4.93;2.10;;;22.00;57.00;;;;;;5034373;28;20045;-70
2022/08/05 00:20:21;;;;;;;4.82;1.50;;;22.10;57.20;;;;;;5034307;28;20041;-69
2022/08/05 00:22:47;;;;;;;3.50;1.95;;;22.00;57.10;;;;;;5034349;28;20044;-69
2022/08/05 00:25:13;;;;;;;4.72;1.52;;;22.00;57.10;;;;;;5034368;28;20045;-69
2022/08/05 00:27:38;;;;;;;4.25;1.52;;;22.00;57.10;;;;;;5035537;28;20053;-69
2022/08/05 00:30:05;;;;;;;3.22;1.60;;;22.00;57.20;;;;;;5001329;28;20406;-69
2022/08/05 00:32:30;;;;;;;3.20;1.50;;;21.90;57.10;;;;;;5050740;28;20116;-69
2022/08/05 00:34:56;;;;;;;3.75;1.52;;;21.90;57.10;;;;;;5017532;28;20125;-69
2022/08/05 00:37:22;;;;;;;4.25;1.58;;;21.90;57.10;;;;;;5034126;28;20053;-69
2022/08/05 00:39:47;;;;;;;3.78;1.40;;;21.90;57.10;;;;;;5034123;28;20052;-70
2022/08/05 00:42:15;;;;;;;5.45;1.77;;;21.90;57.30;;;;;;5034064;28;20406;-70
2022/08/05 00:44:41;;;;;;;6.22;1.98;;;21.90;57.30;;;;;;5034021;28;20053;-65
2022/08/05 00:47:07;;;;;;;3.35;1.90;;;21.90;57.50;;;;;;5033703;28;20494;-65
2022/08/05 00:49:33;;;;;;;2.75;1.52;;;21.80;57.30;;;;;;5035191;28;20053;-65
2022/08/05 00:51:59;;;;;;;3.58;1.27;;;21.80;57.30;;;;;;5033684;28;20505;-69
2022/08/05 00:54:25;;;;;;;6.55;1.48;;;21.80;57.20;;;;;;5017427;28;20037;-69
2022/08/05 00:56:50;;;;;;;2.25;1.50;;;21.80;57.20;;;;;;5017255;28;20041;-70
2022/08/05 00:59:16;;;;;;;4.20;1.30;;;21.80;57.20;;;;;;5035131;28;20063;-69
2022/08/05 01:01:41;;;;;;;4.00;1.52;;;21.80;57.20;;;;;;5033174;28;20490;-69
2022/08/05 01:04:07;;;;;;;2.95;1.10;;;21.80;57.20;;;;;;5034944;28;20049;-69
2022/08/05 01:06:33;;;;;;;2.45;1.17;;;21.80;57.30;;;;;;5033306;28;20096;-69
2022/08/05 01:08:59;;;;;;;3.53;1.17;;;21.80;57.30;;;;;;5033350;28;20057;-69
2022/08/05 01:11:30;;;;;;;2.47;1.40;;;21.80;57.20;;;;;;5033499;28;20483;-69
2022/08/05 01:14:04;;;;;;;3.42;1.20;;;21.80;57.30;;;;;;5033262;28;20204;-69
2022/08/05 01:16:46;;;;;;;2.65;1.40;;;21.80;57.20;;;;;;5033473;28;20085;-69
2022/08/05 01:19:20;;;;;;;3.97;1.42;;;21.80;57.20;;;;;;5033183;28;20045;-69
2022/08/05 01:21:58;;;;;;;3.00;1.40;;;21.90;57.20;;;;;;5033094;28;20045;-65
2022/08/05 01:24:27;;;;;;;4.47;1.55;;;21.80;57.30;;;;;;5032989;28;20041;-65
2022/08/05 01:26:59;;;;;;;3.13;1.33;;;21.80;57.40;;;;;;5033146;28;20042;-65
2022/08/05 01:29:28;;;;;;;2.50;1.10;;;21.80;57.30;;;;;;5032985;28;20064;-65
2022/08/05 01:31:59;;;;;;;3.45;1.52;;;21.80;57.30;;;;;;5032869;28;20046;-65
2022/08/05 01:34:30;;;;;;;3.15;1.25;;;21.80;57.30;;;;;;5016290;28;20116;-65
2022/08/05 01:37:17;;;;;;;3.45;1.50;;;21.80;57.40;;;;;;5034011;28;20112;-65
2022/08/05 01:39:46;;;;;;;5.78;1.60;;;21.80;57.40;;;;;;5032780;28;20095;-65
2022/08/05 01:42:18;;;;;;;2.88;1.17;;;21.80;57.60;;;;;;5032721;28;20052;-65
2022/08/05 01:44:46;;;;;;;3.08;1.52;;;21.80;57.50;;;;;;5032629;28;20045;-65
2022/08/05 01:47:16;;;;;;;4.32;1.52;;;21.70;57.40;;;;;;5032450;28;20103;-65
2022/08/05 01:49:42;;;;;;;4.03;1.70;;;21.70;57.40;;;;;;5032515;28;20041;-65
2022/08/05 01:52:08;;;;;;;3.45;1.20;;;21.80;57.50;;;;;;5033771;28;20056;-65
2022/08/05 01:54:47;;;;;;;2.22;1.30;;;21.70;57.40;;;;;;5032441;28;20034;-65
2022/08/05 01:57:16;;;;;;;3.92;1.30;;;21.70;57.40;;;;;;5032394;28;20062;-65
2022/08/05 01:59:44;;;;;;;3.92;1.30;;;21.70;57.50;;;;;;5032330;28;20045;-65
2022/08/05 02:02:11;;;;;;;2.97;1.33;;;21.70;57.50;;;;;;5015878;28;20045;-65
2022/08/05 02:04:42;;;;;;;3.03;1.27;;;21.70;57.40;;;;;;5033701;28;20039;-65
2022/08/05 02:07:09;;;;;;;4.00;1.40;;;21.60;57.40;;;;;;5032298;28;20494;-65
2022/08/05 02:09:34;;;;;;;4.45;1.60;;;21.70;57.50;;;;;;5032132;28;20495;-65
2022/08/05 02:12:18;;;;;;;3.95;1.63;;;21.60;57.40;;;;;;5031772;28;20052;-65
2022/08/05 02:14:49;;;;;;;2.13;1.35;;;21.60;57.40;;;;;;5032152;28;20041;-66
2022/08/05 02:17:24;;;;;;;2.42;1.30;;;21.60;57.40;;;;;;5032048;28;20533;-64
2022/08/05 02:19:54;;;;;;;3.17;1.40;;;21.60;57.40;;;;;;5033774;28;20037;-65
2022/08/05 02:22:29;;;;;;;2.47;1.40;;;21.60;57.40;;;;;;5031955;28;20041;-65
2022/08/05 02:25:02;;;;;;;4.22;1.42;;;21.60;57.40;;;;;;5033471;28;20364;-71
2022/08/05 02:27:29;;;;;;;3.30;1.27;;;21.50;57.40;;;;;;5033192;28;20502;-69
2022/08/05 02:29:58;;;;;;;2.65;1.17;;;21.50;57.40;;;;;;5033121;28;20053;-69
2022/08/05 02:32:27;;;;;;;2.72;1.35;;;21.50;57.50;;;;;;5032240;28;20045;-69
2022/08/05 02:34:53;;;;;;;4.85;1.58;;;21.50;57.50;;;;;;5032132;28;20131;-69
2022/08/05 02:37:19;;;;;;;2.58;0.90;;;21.50;57.50;;;;;;5032257;28;20049;-69
2022/08/05 02:39:47;;;;;;;2.70;1.10;;;21.50;57.50;;;;;;5032120;28;20076;-69
2022/08/05 02:42:14;;;;;;;2.92;1.20;;;21.40;57.50;;;;;;5031896;28;20490;-69
2022/08/05 02:44:42;;;;;;;3.42;1.63;;;21.40;57.50;;;;;;5031867;28;20486;-69
2022/08/05 02:47:10;;;;;;;3.65;1.40;;;21.40;57.60;;;;;;5015278;28;20049;-69
2022/08/05 02:49:38;;;;;;;3.55;1.27;;;21.40;57.60;;;;;;5031686;28;20494;-65
2022/08/05 02:52:08;;;;;;;3.25;1.17;;;21.40;57.70;;;;;;5031818;28;20045;-65
2022/08/05 02:54:36;;;;;;;2.45;1.35;;;21.40;57.70;;;;;;5031570;28;20042;-65
2022/08/05 02:57:02;;;;;;;3.65;1.30;;;21.40;57.80;;;;;;5031511;28;20041;-65
2022/08/05 02:59:29;;;;;;;1.70;1.30;;;21.30;57.70;;;;;;5032742;28;20056;-65
2022/08/05 03:01:59;;;;;;;2.95;1.60;;;21.30;57.80;;;;;;5031466;28;20048;-65
2022/08/05 03:04:25;;;;;;;1.88;1.30;;;21.30;57.90;;;;;;5031657;28;20049;-65
2022/08/05 03:06:51;;;;;;;4.53;1.73;;;21.30;57.90;;;;;;5031381;28;20102;-65
2022/08/05 03:09:17;;;;;;;3.35;1.38;;;21.30;58.00;;;;;;5048008;28;20121;-65
2022/08/05 03:11:43;;;;;;;4.22;1.85;;;21.30;58.40;;;;;;5031890;28;20046;-69
2022/08/05 03:14:10;;;;;;;3.85;1.70;;;21.20;58.00;;;;;;5031311;28;20076;-69
2022/08/05 03:16:36;;;;;;;2.70;1.33;;;21.30;58.00;;;;;;5031612;28;20112;-69
2022/08/05 03:19:03;;;;;;;3.42;1.50;;;21.30;58.10;;;;;;5031553;28;20542;-70
2022/08/05 03:21:29;;;;;;;4.07;2.08;;;21.20;58.10;;;;;;5031200;28;20111;-69
2022/08/05 03:23:55;;;;;;;2.00;1.20;;;21.20;58.20;;;;;;5033758;28;20124;-69
2022/08/05 03:26:21;;;;;;;3.65;1.55;;;21.20;58.10;;;;;;5036500;28;20047;-69
2022/08/05 03:28:47;;;;;;;5.00;1.48;;;21.20;58.50;;;;;;5018722;28;20049;-69
2022/08/05 03:31:13;;;;;;;3.13;1.63;;;21.10;58.10;;;;;;5035410;28;20034;-69
2022/08/05 03:33:40;;;;;;;5.30;2.58;;;21.20;58.20;;;;;;5018552;28;20048;-69
2022/08/05 03:36:06;;;;;;;2.33;1.50;;;21.10;58.20;;;;;;5035008;28;20482;-69
2022/08/05 03:38:32;;;;;;;3.40;1.65;;;21.10;58.20;;;;;;5035542;28;20042;-69
2022/08/05 03:40:57;;;;;;;4.35;1.55;;;21.10;58.20;;;;;;5035044;28;20049;-69
2022/08/05 03:43:24;;;;;;;2.88;1.45;;;21.10;58.30;;;;;;5035321;28;20033;-69
2022/08/05 03:45:51;;;;;;;2.85;1.27;;;21.10;58.30;;;;;;5034938;28;20428;-69
2022/08/05 03:48:18;;;;;;;3.83;1.48;;;21.00;58.20;;;;;;5018415;28;20117;-69
2022/08/05 03:50:52;;;;;;;2.70;1.20;;;21.00;58.20;;;;;;5034837;28;20048;-69
2022/08/05 03:53:22;;;;;;;;;;;21.00;58.20;;;;;;5035113;28;20056;-69
2022/08/05 03:55:56;;;;;;;5.15;2.35;;;21.00;58.00;;;;;;5034988;28;20370;-69
2022/08/05 03:58:25;;;;;;;4.13;1.60;;;20.90;58.50;;;;;;5034589;28;20050;-65
2022/08/05 04:00:52;;;;;;;3.92;1.30;;;20.90;58.50;;;;;;5034639;28;20115;-65
2022/08/05 04:03:18;;;;;;;4.28;2.13;;;20.90;58.50;;;;;;5034580;28;20057;-65
2022/08/05 04:05:45;;;;;;;5.97;1.95;;;20.90;58.60;;;;;;5034474;28;20045;-65
2022/08/05 04:08:11;;;;;;;3.33;1.33;;;20.90;58.70;;;;;;5034469;28;20052;-65
2022/08/05 04:10:38;;;;;;;2.63;1.40;;;20.90;58.70;;;;;;5034393;28;20051;-65
2022/08/05 04:13:06;;;;;;;3.40;1.77;;;20.80;58.60;;;;;;5034561;28;20533;-65
2022/08/05 04:15:32;;;;;;;3.60;1.45;;;20.80;58.60;;;;;;5034390;28;20052;-65
2022/08/05 04:18:02;;;;;;;1.63;1.30;;;20.80;58.60;;;;;;5034359;28;20049;-65
2022/08/05 04:20:28;;;;;;;4.78;2.03;;;20.80;58.60;;;;;;5034250;28;20085;-65
2022/08/05 04:22:54;;;;;;;3.47;1.40;;;20.80;58.70;;;;;;5034462;28;20104;-64
2022/08/05 04:25:19;;;;;;;2.75;1.45;;;20.80;58.70;;;;;;5034202;28;20383;-64
2022/08/05 04:27:45;;;;;;;3.15;1.35;;;20.80;58.80;;;;;;5035246;28;20048;-64
2022/08/05 04:30:11;;;;;;;2.95;1.60;;;20.70;58.80;;;;;;5033925;28;20402;-65
2022/08/05 04:32:37;;;;;;;3.50;1.60;;;20.70;58.80;;;;;;5034042;28;20038;-64
2022/08/05 04:35:03;;;;;;;3.03;1.65;;;20.70;58.90;;;;;;5033229;28;20038;-65
2022/08/05 04:37:28;;;;;;;3.47;1.60;;;20.70;58.90;;;;;;5017331;28;20080;-64
2022/08/05 04:39:55;;;;;;;5.13;1.40;;;20.70;58.90;;;;;;5033883;28;20073;-64
2022/08/05 04:42:20;;;;;;;3.25;1.50;;;20.70;59.00;;;;;;5034170;28;20045;-69
2022/08/05 04:44:46;;;;;;;3.85;1.95;;;20.70;59.10;;;;;;5035492;28;20095;-70
2022/08/05 04:47:12;;;;;;;2.35;1.58;;;20.70;59.10;;;;;;5034225;28;20120;-69
2022/08/05 04:49:38;;;;;;;5.57;1.98;;;20.60;59.00;;;;;;5034101;28;20406;-69
2022/08/05 04:52:04;;;;;;;2.72;1.30;;;20.60;59.20;;;;;;5001499;28;20453;-70
2022/08/05 04:54:30;;;;;;;2.80;1.40;;;20.60;59.20;;;;;;5035225;28;20102;-70
2022/08/05 04:56:55;;;;;;;1.83;1.20;;;20.60;59.10;;;;;;5050466;28;20041;-69
2022/08/05 04:59:21;;;;;;;4.18;1.77;;;20.60;59.20;;;;;;5034955;28;20089;-68
2022/08/05 05:01:48;;;;;;;2.58;1.48;;;20.60;59.20;;;;;;5033769;28;20441;-68
2022/08/05 05:04:14;;;;;;;4.18;2.10;;;20.60;59.30;;;;;;5033996;28;20045;-68
2022/08/05 05:06:40;;;;;;;3.45;1.63;;;20.60;59.40;;;;;;5050057;28;20045;-64
2022/08/05 05:09:05;;;;;;;5.50;1.75;;;20.60;59.40;;;;;;5034678;28;20041;-64
2022/08/05 05:11:31;;;;;;;5.63;1.80;;;20.60;59.50;;;;;;5034492;28;20453;-64
2022/08/05 05:13:57;;;;;;;3.55;1.98;;;20.60;59.50;;;;;;5033216;28;20042;-64
2022/08/05 05:16:22;;;;;;;3.63;1.58;;;20.60;59.50;;;;;;5033200;28;20069;-64
2022/08/05 05:18:48;;;;;;;3.30;1.90;;;20.60;59.50;;;;;;5033239;28;20092;-64
2022/08/05 05:21:14;;;;;;;4.22;1.80;;;20.60;59.50;;;;;;5033007;28;20046;-64
2022/08/05 05:23:39;;;;;;;3.85;2.00;;;20.60;59.50;;;;;;5033027;28;20041;-64
2022/08/05 05:26:05;;;;;;;3.17;1.52;;;20.60;59.60;;;;;;5034269;28;20037;-63
2022/08/05 05:28:31;;;;;;;3.25;1.77;;;20.60;59.60;;;;;;5032773;28;20072;-63
2022/08/05 05:30:57;;;;;;;3.25;1.80;;;20.60;59.60;;;;;;5016551;28;20068;-63
2022/08/05 05:33:23;;;;;;;6.38;2.10;;;20.50;59.50;;;;;;5032956;28;20123;-63
2022/08/05 05:35:48;;;;;;;4.15;1.85;;;20.50;59.50;;;;;;5034066;28;20475;-63
2022/08/05 05:38:15;;;;;;;2.78;1.50;;;20.50;59.50;;;;;;5032792;28;20052;-63
2022/08/05 05:40:42;;;;;;;4.38;2.25;;;20.50;59.50;;;;;;5034053;28;20429;-63
2022/08/05 05:43:07;;;;;;;3.00;1.50;;;20.50;59.60;;;;;;5032577;28;20487;-63
2022/08/05 05:45:33;;;;;;;3.40;1.77;;;20.50;59.50;;;;;;5032913;28;20044;-63
2022/08/05 05:47:59;;;;;;;2.65;1.73;;;20.50;59.60;;;;;;5032381;28;20483;-64
2022/08/05 05:50:25;;;;;;;4.25;2.35;;;20.50;59.70;;;;;;5032494;28;20041;-63
2022/08/05 05:52:51;;;;;;;4.18;2.10;;;20.40;59.90;;;;;;5000073;28;20037;-64
2022/08/05 05:55:17;;;;;;;5.65;2.33;;;20.50;60.10;;;;;;5033660;28;20525;-64
2022/08/05 05:57:45;;;;;;;5.90;2.60;;;20.50;60.10;;;;;;5032603;28;20073;-68
2022/08/05 06:00:17;;;;;;;5.63;2.75;;;20.50;60.40;;;;;;5032671;28;20049;-69
2022/08/05 06:02:45;;;;;;;4.07;2.40;;;20.60;61.00;;;;;;5032855;28;20399;-68
2022/08/05 06:05:13;;;;;;;6.55;2.35;;;20.60;60.80;;;;;;5032876;28;20049;-69
2022/08/05 06:07:39;;;;;;;4.15;2.47;;;20.80;60.90;;;;;;5049291;28;20057;-68
2022/08/05 06:10:06;;;;;;;3.70;2.30;;;21.00;60.90;;;;;;5032629;28;20044;-68
2022/08/05 06:12:35;;;;;;;3.92;1.92;;;21.20;60.60;;;;;;5032536;28;20053;-68
2022/08/05 06:15:02;;;;;;;3.40;1.90;;;21.60;60.10;;;;;;5033630;28;20517;-68
2022/08/05 06:17:28;;;;;;;4.55;2.05;;;21.80;59.60;;;;;;5033354;28;20052;-68
2022/08/05 06:19:53;;;;;;;4.15;1.80;;;22.00;59.10;;;;;;5032294;28;20053;-68
2022/08/05 06:22:30;;;;;;;4.70;1.40;;;22.30;58.70;;;;;;5031856;28;20042;-64
2022/08/05 06:24:57;;;;;;;3.47;1.60;;;22.70;58.00;;;;;;5032188;28;20175;-64
2022/08/05 06:27:22;;;;;;;3.42;1.30;;;22.90;57.50;;;;;;5031853;28;20045;-64
2022/08/05 06:29:48;;;;;;;2.60;1.08;;;23.20;56.70;;;;;;5031792;28;20056;-64
2022/08/05 06:32:14;;;;;;;3.50;1.05;;;23.40;56.10;;;;;;5031813;28;20046;-63
2022/08/05 06:34:40;;;;;;;3.95;1.20;;;23.60;55.80;;;;;;5031649;28;20046;-63
2022/08/05 06:37:06;;;;;;;3.53;0.90;;;23.80;55.30;;;;;;5031791;28;20530;-63
2022/08/05 06:39:32;;;;;;;2.83;1.13;;;24.10;54.80;;;;;;5031694;28;20131;-63
2022/08/05 06:42:02;;;;;;;3.47;1.30;;;24.50;54.70;;;;;;5048680;28;20130;-64
2022/08/05 06:44:28;;;;;;;3.85;1.45;;;24.90;53.80;;;;;;5048369;28;20160;-64
2022/08/05 06:46:55;;;;;;;2.05;0.90;;;25.30;53.00;;;;;;5048236;28;20045;-64
2022/08/05 06:49:21;;;;;;;2.88;0.70;;;25.60;52.20;;;;;;5032808;28;20112;-64
2022/08/05 06:51:47;;;;;;;4.10;0.93;;;26.00;51.50;;;;;;5015098;28;20187;-64
2022/08/05 06:54:12;;;;;;;3.45;1.00;;;26.20;50.90;;;;;;5031579;28;20053;-64
2022/08/05 06:56:38;;;;;;;1.88;0.60;;;26.60;50.50;;;;;;5032811;28;20132;-64
2022/08/05 06:59:05;;;;;;;2.95;0.80;;;26.80;49.60;;;;;;5032185;28;20080;-65
2022/08/05 07:01:30;;;;;;;3.63;0.88;;;27.00;48.70;;;;;;5031442;28;20483;-65
2022/08/05 07:03:56;;;;;;;3.67;0.82;;;27.20;48.00;;;;;;5031427;28;20053;-65
2022/08/05 07:06:22;;;;;;;3.28;0.60;;;27.40;47.80;;;;;;5048194;28;20037;-65
2022/08/05 07:08:48;;;;;;;2.90;0.68;;;27.50;47.00;;;;;;5031392;28;20056;-65
2022/08/05 07:11:14;;;;;;;2.00;0.85;;;27.50;46.60;;;;;;5031277;28;20048;-65
2022/08/05 07:19:08;;;;;;;1.95;0.57;;;27.40;46.40;;;;;;5031254;28;20051;-65
2022/08/05 07:21:34;;;;;;;2.45;0.80;;;27.30;46.50;;;;;;5032486;28;20041;-65
2022/08/05 07:23:59;;;;;;;1.42;0.60;;;27.20;46.50;;;;;;5031609;28;20037;-65
2022/08/05 07:26:25;;;;;;;2.17;0.60;;;27.20;46.60;;;;;;5032543;28;20041;-64
2022/08/05 07:28:51;;;;;;;4.90;1.05;;;27.20;46.80;;;;;;5031106;28;20057;-63
2022/08/05 07:31:17;;;;;;;2.67;1.08;;;27.30;47.00;;;;;;5031496;28;20045;-64
2022/08/05 07:33:43;;;;;;;2.60;0.60;;;27.50;47.10;;;;;;5031472;28;20037;-64
2022/08/05 07:36:09;;;;;;;3.50;1.42;;;27.60;46.10;;;;;;5032567;28;20457;-64
2022/08/05 07:38:36;;;;;;;3.40;1.02;;;27.70;45.90;;;;;;5031124;28;20128;-65
2022/08/05 07:41:07;;;;;;;2.33;0.68;;;27.80;45.60;;;;;;5031313;28;20431;-64
2022/08/05 07:43:33;;;;;;;2.20;0.70;;;27.80;45.60;;;;;;5014642;28;20045;-65
2022/08/05 07:45:58;;;;;;;2.90;0.70;;;27.80;45.70;;;;;;5031102;28;20397;-65
2022/08/05 07:48:24;;;;;;;4.35;1.05;;;27.90;45.80;;;;;;5014625;28;20128;-64
2022/08/05 07:50:50;;;;;;;1.75;0.50;;;27.90;45.10;;;;;;5032432;28;20090;-64
2022/08/05 07:53:16;;;;;;;2.50;0.75;;;28.00;44.50;;;;;;5014551;28;20512;-64
2022/08/05 07:55:41;;;;;;;2.38;0.77;;;28.10;44.40;;;;;;5031234;28;20045;-64
2022/08/05 07:58:07;;;;;;;2.83;0.65;;;28.10;44.70;;;;;;5032114;28;20398;-64
2022/08/05 08:00:33;;;;;;;2.75;0.70;;;28.20;44.50;;;;;;5031223;28;20136;-64
2022/08/05 08:02:58;;;;;;;4.72;1.05;;;28.20;44.30;;;;;;5030918;28;20050;-64
2022/08/05 08:05:26;;;;;;;2.03;0.80;;;28.30;44.70;;;;;;5031079;28;20045;-69
2022/08/05 08:07:54;;;;;;;1.52;0.50;;;28.40;44.50;;;;;;5030902;28;20077;-69
2022/08/05 08:10:20;;;;;;;3.25;0.70;;;28.50;44.40;;;;;;5047666;28;20124;-65
2022/08/05 08:12:46;;;;;;;4.80;0.73;;;28.70;44.20;;;;;;5035665;28;20084;-65
2022/08/05 08:15:12;;;;;;;2.60;0.73;;;28.70;43.60;;;;;;5034964;28;20076;-65
2022/08/05 08:17:38;;;;;;;3.85;0.82;;;28.80;43.00;;;;;;5035773;28;20124;-65
2022/08/05 08:20:05;;;;;;;4.68;0.98;;;28.80;42.80;;;;;;5035669;28;20041;-63
2022/08/05 08:22:31;;;;;;;2.78;0.60;;;28.90;42.50;;;;;;5018214;28;20099;-63
2022/08/05 08:24:56;;;;;;;1.85;0.60;;;28.90;42.20;;;;;;5034503;28;20045;-63
2022/08/05 08:27:22;;;;;;;3.03;0.50;;;28.90;42.20;;;;;;5034172;28;20038;-64
2022/08/05 08:29:48;;;;;;;4.45;0.88;;;28.90;42.50;;;;;;5035195;28;20064;-64
2022/08/05 08:32:13;;;;;;;4.15;0.88;;;28.90;42.80;;;;;;5035394;28;20037;-64
2022/08/05 08:34:39;;;;;;;7.47;1.35;;;28.80;42.20;;;;;;5034263;28;20496;-64
2022/08/05 08:37:05;;;;;;;4.38;0.93;;;28.80;42.20;;;;;;5035340;28;20505;-65
2022/08/05 08:39:30;;;;;;;2.85;0.90;;;28.80;41.60;;;;;;5035212;28;20041;-65
2022/08/05 08:41:59;;;;;;;2.55;0.70;;;28.90;41.80;;;;;;5034177;28;20049;-64
2022/08/05 08:44:29;;;;;;;6.03;0.68;;;28.90;41.40;;;;;;5050854;28;20402;-68
2022/08/05 08:46:55;;;;;;;2.20;0.70;;;28.90;41.20;;;;;;5035300;28;20372;-65
2022/08/05 08:49:23;;;;;;;3.47;0.65;;;28.90;41.00;;;;;;5035242;28;20033;-70
2022/08/05 08:52:00;;;;;;;3.70;0.75;;;28.90;41.10;;;;;;5034056;28;20049;-70
2022/08/05 08:54:26;;;;;;;1.98;0.35;;;28.90;41.50;;;;;;5035104;28;20041;-65
2022/08/05 08:56:52;;;;;;;1.77;0.35;;;28.90;40.60;;;;;;5033873;28;20465;-71
2022/08/05 08:59:20;;;;;;;2.95;0.40;;;28.90;40.60;;;;;;5034048;28;20121;-70
2022/08/05 09:01:46;;;;;;;3.05;0.73;;;28.90;40.10;;;;;;5035266;28;20069;-65
2022/08/05 09:04:12;;;;;;;1.50;0.60;;;28.90;40.60;;;;;;5034817;28;20041;-62
2022/08/05 09:06:38;;;;;;;3.33;0.50;;;28.90;40.40;;;;;;5034587;28;20076;-65
2022/08/05 09:09:04;;;;;;;2.72;0.80;;;28.90;40.00;;;;;;5034614;28;20042;-65
2022/08/05 09:11:35;;;;;;;2.15;0.50;;;28.90;39.20;;;;;;5034624;28;20049;-63
2022/08/05 09:14:01;;;;;;;2.53;0.40;;;28.80;38.80;;;;;;5034473;28;20057;-63
2022/08/05 09:16:26;;;;;;;1.55;0.50;;;28.70;39.40;;;;;;5033523;28;20049;-63
2022/08/05 09:18:52;;;;;;;1.13;0.50;;;28.70;39.40;;;;;;5033161;28;20451;-63
2022/08/05 09:21:21;;;;;;;2.92;0.70;;;28.70;40.00;;;;;;5016093;28;20041;-63
2022/08/05 09:24:02;;;;;;;2.33;0.47;;;28.70;39.70;;;;;;5034629;28;20046;-64
2022/08/05 09:26:28;;;;;;;3.15;0.40;;;28.70;39.70;;;;;;5032982;28;20217;-64
2022/08/05 09:28:59;;;;;;;2.55;0.60;;;28.60;39.70;;;;;;5033034;28;20053;-64
2022/08/05 09:31:25;;;;;;;1.40;0.63;;;28.50;39.20;;;;;;5034217;28;20043;-64
2022/08/05 09:33:57;;;;;;;3.63;0.77;;;28.50;38.40;;;;;;5033147;28;20072;-63
2022/08/05 09:36:36;;;;;;;1.95;0.60;;;28.50;38.60;;;;;;5034156;28;20037;-64
2022/08/05 09:39:05;;;;;;;1.33;0.30;;;28.50;38.60;;;;;;5033133;28;20376;-64
2022/08/05 09:41:31;;;;;;;2.78;0.75;;;28.50;38.40;;;;;;5032844;28;20045;-64
2022/08/05 09:43:57;;;;;;;1.20;0.30;;;28.40;37.80;;;;;;5033957;28;20395;-64
2022/08/05 09:46:29;;;;;;;2.67;0.50;;;28.30;38.10;;;;;;5032600;28;20041;-64
2022/08/05 09:49:00;;;;;;;1.38;0.28;;;28.30;37.60;;;;;;5032648;28;20045;-64
2022/08/05 09:51:40;;;;;;;0.63;0.30;;;28.20;38.10;;;;;;5032569;28;20509;-64
2022/08/05 09:54:07;;;;;;;1.10;0.30;;;28.30;38.60;;;;;;5032829;28;20045;-64
2022/08/05 09:56:38;;;;;;;3.13;0.38;;;28.30;38.40;;;;;;5032537;28;20081;-64
2022/08/05 09:59:09;;;;;;;2.90;0.55;;;28.30;38.60;;;;;;5032379;28;20813;-64
2022/08/05 10:01:39;;;;;;;1.50;0.30;;;28.30;37.60;;;;;;5032473;28;20046;-64
2022/08/05 10:04:06;;;;;;;2.88;0.50;;;28.30;37.70;;;;;;5016447;28;20045;-64
2022/08/05 10:06:32;;;;;;;2.67;0.50;;;28.40;37.70;;;;;;5032217;28;20124;-64
2022/08/05 10:09:21;;;;;;;1.52;0.30;;;28.40;37.60;;;;;;5032517;28;20052;-64
2022/08/05 10:11:49;;;;;;;0.88;0.20;;;28.40;36.70;;;;;;5032195;28;20049;-64
2022/08/05 10:14:30;;;;;;;1.92;0.30;;;28.40;35.10;;;;;;5032411;28;20398;-63
2022/08/05 10:17:11;;;;;;;0.30;0.20;;;28.40;35.80;;;;;;5048774;28;20045;-63
2022/08/05 10:19:38;;;;;;;0.52;0.20;;;28.40;34.70;;;;;;5032201;28;20502;-64
2022/08/05 10:22:04;;;;;;;1.08;0.30;;;28.30;34.00;;;;;;5031916;28;20095;-64
2022/08/05 10:24:31;;;;;;;1.10;0.30;;;28.30;33.20;;;;;;5033496;28;20041;-64
2022/08/05 10:26:58;;;;;;;1.63;0.40;;;28.20;33.20;;;;;;5032002;28;20048;-64
2022/08/05 10:29:26;;;;;;;2.80;0.45;;;28.20;33.20;;;;;;5031651;28;20090;-64
2022/08/05 10:31:52;;;;;;;0.38;0.10;;;28.20;34.20;;;;;;5031795;28;20049;-64
2022/08/05 10:34:18;;;;;;;1.92;0.30;;;28.20;34.10;;;;;;5030994;28;20091;-64
2022/08/05 10:36:45;;;;;;;2.10;0.40;;;28.10;33.40;;;;;;5031763;28;20037;-63
2022/08/05 10:39:20;;;;;;;1.80;0.30;;;28.10;33.50;;;;;;5033129;28;20045;-64
2022/08/05 10:42:06;;;;;;;0.68;0.20;;;28.10;33.50;;;;;;5031698;28;20041;-63
2022/08/05 10:44:33;;;;;;;1.45;0.40;;;28.00;33.60;;;;;;5031577;28;20081;-63
2022/08/05 10:47:09;;;;;;;2.05;0.30;;;27.90;33.90;;;;;;5031730;28;20418;-63
2022/08/05 10:49:59;;;;;;;1.25;0.20;;;27.90;34.10;;;;;;5031685;28;20041;-64
2022/08/05 10:52:59;;;;;;;0.55;0.25;;;27.90;33.80;;;;;;5031944;28;20041;-63
2022/08/05 10:55:26;;;;;;;1.88;0.55;;;27.90;33.00;;;;;;5031744;28;20116;-64
2022/08/05 10:58:08;;;;;;;1.35;0.10;;;27.90;33.50;;;;;;5032849;28;20084;-64
2022/08/05 11:00:34;;;;;;;1.25;0.32;;;27.80;33.80;;;;;;5048220;28;20052;-63
2022/08/05 11:03:06;;;;;;;1.60;0.20;;;27.80;32.70;;;;;;5031535;28;20046;-64
2022/08/05 11:05:33;;;;;;;1.08;0.20;;;27.80;32.20;;;;;;5031652;28;20103;-64
2022/08/05 11:08:07;;;;;;;0.40;0.17;;;27.70;31.90;;;;;;5031365;28;20053;-64
2022/08/05 11:10:38;;;;;;;2.08;0.30;;;27.70;32.20;;;;;;5031704;28;20441;-63
2022/08/05 11:13:05;;;;;;;0.75;0.30;;;27.70;32.40;;;;;;5031327;28;20486;-63
2022/08/05 11:15:39;;;;;;;2.13;0.20;;;27.60;32.70;;;;;;5031627;28;20041;-64
2022/08/05 11:18:25;;;;;;;1.42;0.20;;;27.60;31.80;;;;;;5031578;28;20049;-64
2022/08/05 11:20:52;;;;;;;1.23;0.30;;;27.50;32.10;;;;;;5014961;28;20118;-64
2022/08/05 11:23:49;;;;;;;1.08;0.20;;;27.40;32.50;;;;;;5031303;28;20052;-69
2022/08/05 11:26:16;;;;;;;0.75;0.32;;;27.40;32.70;;;;;;5017789;28;20132;-69
2022/08/05 11:28:47;;;;;;;2.83;0.28;;;27.30;32.70;;;;;;5032359;28;20107;-68
2022/08/05 11:31:13;;;;;;;1.10;0.25;;;27.30;32.60;;;;;;5032717;28;20037;-69
2022/08/05 11:33:45;;;;;;;0.45;0.10;;;27.30;32.80;;;;;;5047986;28;20129;-69
2022/08/05 11:36:12;;;;;;;1.17;0.20;;;27.20;33.50;;;;;;5047930;28;20041;-70
2022/08/05 11:38:41;;;;;;;0.73;0.28;;;27.20;33.60;;;;;;5031092;28;20103;-69
2022/08/05 11:41:27;;;;;;;1.35;0.20;;;27.10;34.10;;;;;;5031491;28;20579;-69
2022/08/05 11:44:05;;;;;;;0.95;0.20;;;27.10;33.40;;;;;;5031160;28;20081;-69
2022/08/05 11:46:48;;;;;;;1.60;0.20;;;27.00;33.40;;;;;;5034987;28;20041;-69
2022/08/05 11:49:16;;;;;;;1.85;0.40;;;27.00;33.90;;;;;;5035145;28;20394;-69
2022/08/05 11:51:43;;;;;;;1.67;0.30;;;26.90;34.30;;;;;;5036289;28;20037;-68
2022/08/05 11:54:11;;;;;;;0.60;0.20;;;26.90;34.90;;;;;;5034832;28;20045;-69
2022/08/05 11:56:48;;;;;;;1.25;0.60;;;26.80;34.90;;;;;;5034835;28;20047;-69
2022/08/05 11:59:16;;;;;;;1.70;0.30;;;26.90;35.20;;;;;;5035981;28;20034;-69
2022/08/05 12:02:14;;;;;;;0.85;0.20;;;26.80;35.50;;;;;;5035892;28;20037;-70
2022/08/05 12:04:48;;;;;;;3.35;0.40;;;26.80;35.60;;;;;;5006820;28;20049;-69
2022/08/05 12:07:16;;;;;;;1.25;0.30;;;26.70;35.80;;;;;;5034758;28;20498;-69
2022/08/05 12:09:51;;;;;;;1.38;0.20;;;26.60;35.70;;;;;;5035864;28;20095;-69
2022/08/05 12:12:24;;;;;;;1.30;0.50;;;26.60;35.40;;;;;;5035846;28;20038;-69
2022/08/05 12:14:50;;;;;;;1.88;0.50;;;26.60;36.00;;;;;;5034485;28;20045;-69
2022/08/05 12:17:16;;;;;;;1.52;0.35;;;26.50;35.90;;;;;;5034326;28;20111;-69
2022/08/05 12:19:50;;;;;;;1.33;0.22;;;26.40;36.00;;;;;;5034408;28;20077;-68
2022/08/05 12:22:20;;;;;;;1.42;0.32;;;26.30;36.20;;;;;;5034267;28;20045;-69
2022/08/05 12:24:48;;;;;;;1.20;0.28;;;26.20;36.50;;;;;;5035583;28;20038;-69
2022/08/05 12:27:20;;;;;;;0.82;0.20;;;26.10;36.60;;;;;;5034123;28;20072;-69
2022/08/05 12:29:58;;;;;;;3.25;0.57;;;26.10;36.90;;;;;;5034224;28;20041;-68
2022/08/05 12:32:23;;;;;;;1.50;0.22;;;26.00;37.30;;;;;;5034150;28;20041;-68
2022/08/05 12:34:49;;;;;;;2.13;0.30;;;26.00;37.50;;;;;;5034024;28;20044;-68
2022/08/05 12:37:15;;;;;;;1.70;0.45;;;25.90;37.70;;;;;;5034024;28;20049;-68
2022/08/05 12:39:42;;;;;;;1.40;0.35;;;25.90;38.10;;;;;;5035375;28;20394;-68
2022/08/05 12:42:15;;;;;;;1.75;0.40;;;25.90;38.50;;;;;;5033935;28;20041;-69
2022/08/05 12:44:43;;;;;;;;;;;25.90;38.60;;;;;;5034353;28;20045;-69
2022/08/05 12:47:09;;;;;;;2.22;0.30;;;25.80;38.30;;;;;;5033798;28;19925;-68
2022/08/05 12:49:43;;;;;;;1.63;0.22;;;25.70;38.60;;;;;;5034011;28;20060;-68
2022/08/05 12:52:15;;;;;;;0.63;0.20;;;25.80;38.60;;;;;;5033791;28;20124;-68
2022/08/05 12:54:43;;;;;;;1.95;0.47;;;25.80;38.20;;;;;;5035080;28;20104;-68
2022/08/05 12:57:12;;;;;;;2.05;0.38;;;25.70;37.80;;;;;;5034297;28;20126;-67
2022/08/05 12:59:53;;;;;;;3.92;0.65;;;25.70;37.70;;;;;;5033605;28;20049;-69